Latest Weather Observations for Combienbar

IDV60801

Issued at 11:35 pm EST Tuesday 2 September 2014 (issued every 30 minutes, with the page automatically refreshed every 10 minutes)

About weather observations | Map of weather stations | Latest weather observations for VIC | Other Formats
Station Details ID: 084143 Name: COMBIENBAR AWS Lat: -37.34 Lon: 149.02 Height: 640.0 m
Data from the previous 72 hours. | See also: Recent months at Combienbar
Date/Time
EST
Temp
°C
App
Temp
°C
Dew
Point
Rel
Hum
%
Delta-T
°C
Wind Press
QNH
hPa
Press
MSL
hPa
Rain
since 9 am
mm
Dir
 
Spd
km/h
Gust
km/h
Spd
kts
Gust
kts
02/11:30pm 4.5 1.4 3.5 93 0.4 SSW 9 15 5 8 1017.3 1017.0 23.8
02/11:00pm 4.0 1.1 2.8 92 0.5 SSW 7 13 4 7 1017.4 1017.1 23.8
02/10:30pm 4.0 1.4 3.3 95 0.3 SSW 6 11 3 6 1017.7 1017.4 23.8
02/10:00pm 4.0 1.8 3.1 94 0.4 SSW 4 7 2 4 1017.9 1017.5 23.8
02/09:30pm 4.2 1.7 3.5 95 0.3 SSW 6 15 3 8 1017.6 1017.3 23.2
02/09:00pm 4.2 1.5 3.6 96 0.3 SSW 7 11 4 6 1017.5 1017.2 23.2
02/08:30pm 4.1 1.5 3.2 94 0.4 SSW 6 13 3 7 1017.5 1017.2 23.2
02/08:00pm 4.5 1.3 3.0 90 0.6 SSW 9 15 5 8 1016.8 1016.4 21.4
02/07:30pm 4.8 1.6 2.8 87 0.8 SSW 9 17 5 9 1016.8 1016.4 21.2
02/07:00pm 5.1 1.8 2.6 84 1.1 SW 9 15 5 8 1016.3 1015.9 21.2
02/06:30pm 5.1 1.5 2.8 85 1.0 SSW 11 19 6 10 1015.9 1015.6 21.2
02/06:00pm 5.0 1.4 3.0 87 0.9 SSW 11 20 6 11 1015.3 1014.9 21.2
02/05:30pm 5.1 1.7 4.2 94 0.4 SSW 11 17 6 9 1015.1 1014.7 21.2
02/05:00pm 5.1 1.4 4.7 97 0.2 SW 13 22 7 12 1014.6 1014.2 21.2
02/04:30pm 5.2 1.6 4.9 98 0.1 SSW 13 22 7 12 1013.9 1013.5 21.2
02/04:00pm 4.9 2.0 4.5 97 0.2 SW 9 15 5 8 1013.7 1013.3 18.8
02/03:30pm 4.5 1.5 4.1 97 0.2 SSW 9 19 5 10 1013.3 1012.9 17.2
02/03:00pm 4.3 0.5 3.9 97 0.2 SSW 13 22 7 12 1012.9 1012.4 16.0
02/02:30pm 4.3 -0.3 3.6 95 0.3 SW 17 32 9 17 1012.5 1012.1 14.0
02/02:00pm 3.5 0.7 2.9 96 0.3 SW 7 17 4 9 1012.3 1011.9 13.2
02/01:30pm 3.6 0.8 3.0 96 0.3 SW 7 17 4 9 1012.1 1011.7 10.8
02/01:00pm 3.6 0.4 3.0 96 0.3 SSW 9 19 5 10 1012.3 1011.9 9.4
02/12:30pm 3.9 0.7 3.3 96 0.3 SSW 9 20 5 11 1012.1 1011.7 7.8
02/12:00pm 3.5 0.7 2.9 96 0.3 SSW 7 20 4 11 1012.2 1011.8 6.6
02/11:30am 4.1 1.4 3.5 96 0.3 SW 7 15 4 8 1012.4 1012.0 4.2
02/11:00am 4.3 1.6 3.9 97 0.2 SW 7 15 4 8 1012.5 1012.1 3.0
02/10:30am 4.7 2.1 4.3 97 0.2 SW 7 15 4 8 1012.5 1012.1 1.6
02/10:00am 5.1 2.6 4.7 97 0.2 SW 7 20 4 11 1012.1 1011.7 0.8
02/09:30am 5.1 2.2 4.5 96 0.3 SW 9 19 5 10 1011.7 1011.2 0.2
02/09:00am 5.6 2.0 5.0 96 0.3 SSW 13 20 7 11 1011.3 1010.8 12.2
02/08:30am 6.1 3.9 5.4 95 0.3 SW 6 15 3 8 1010.9 1010.5 11.8
02/08:00am 6.2 4.0 5.2 93 0.5 SW 6 11 3 6 1010.7 1010.3 11.4
02/07:30am 6.2 3.8 5.3 94 0.4 SW 7 17 4 9 1010.6 1010.2 11.2
02/07:00am 5.8 3.3 4.9 94 0.4 SW 7 15 4 8 1010.3 1009.8 11.2
02/06:30am 5.5 3.0 4.5 93 0.4 SW 7 15 4 8 1010.2 1009.7 11.2
02/06:00am 5.3 2.7 4.4 94 0.4 SW 7 17 4 9 1010.2 1009.7 11.0
02/05:30am 5.4 2.9 4.7 95 0.3 SW 7 13 4 7 1009.9 1009.4 10.8
02/05:00am 5.3 2.8 4.6 95 0.3 SW 7 13 4 7 1009.8 1009.3 10.8
02/04:30am 5.3 3.0 4.7 96 0.3 SW 6 9 3 5 1009.6 1009.1 10.6
02/04:00am 5.6 3.4 5.2 97 0.2 SW 6 9 3 5 1009.2 1008.8 10.6
02/03:30am 5.7 4.3 5.3 97 0.2 SW 2 4 1 2 1009.3 1008.9 10.0
02/03:00am 5.6 3.8 5.2 97 0.2 SW 4 7 2 4 1009.4 1009.0 9.2
02/02:30am 5.8 3.6 5.4 97 0.2 SW 6 17 3 9 1009.6 1009.1 8.8
02/02:00am 6.4 4.7 6.0 97 0.2 SW 4 11 2 6 1009.8 1009.3 8.6
02/01:30am 6.9 6.1 6.5 97 0.2 CALM 0 0 0 0 1009.8 1009.3 8.0
02/01:00am 7.1 5.6 6.7 97 0.2 SW 4 7 2 4 1009.6 1009.1 6.4
02/12:30am 7.8 7.2 7.4 97 0.2 CALM 0 4 0 2 1009.4 1009.0 4.4
02/12:00am 8.1 7.6 7.7 97 0.2 W 0 0 0 0 1009.6 1009.1 2.4
 
Date/Time
EST
Temp
°C
App
Temp
°C
Dew
Point
Rel
Hum
%
Delta-T
°C
Wind Press
QNH
hPa
Press
MSL
hPa
Rain
since 9 am
mm
Dir
 
Spd
km/h
Gust
km/h
Spd
kts
Gust
kts
01/11:30pm 8.0 7.4 7.4 96 0.3 CALM 0 0 0 0 1009.4 1009.0 1.8
01/11:00pm 8.1 7.5 7.5 96 0.3 CALM 0 0 0 0 1009.4 1009.0 1.6
01/10:30pm 8.1 7.5 7.5 96 0.3 CALM 0 0 0 0 1009.6 1009.1 1.6
01/10:00pm 8.1 7.5 7.3 95 0.4 CALM 0 0 0 0 1009.6 1009.1 1.6
01/09:30pm 8.1 7.5 7.3 95 0.4 CALM 0 0 0 0 1009.9 1009.4 1.6
01/09:00pm 8.3 7.7 7.5 95 0.4 CALM 0 2 0 1 1010.5 1010.1 1.4
01/08:30pm 8.4 7.8 7.3 93 0.5 CALM 0 0 0 0 1010.2 1009.7 1.0
01/08:00pm 8.8 8.1 6.9 88 0.9 CALM 0 0 0 0 1010.3 1009.8 0.6
01/07:30pm 9.8 8.6 6.3 79 1.7 SW 2 4 1 2 1010.0 1009.5 0.0
01/07:00pm 10.7 9.0 5.7 71 2.4 SSW 4 6 2 3 1009.1 1008.6 0.0
01/06:30pm 14.0 12.3 4.0 51 4.7 SW 2 6 1 3 1008.9 1008.4 0.0
01/06:00pm 14.6 11.9 2.5 44 5.6 N 6 11 3 6 1008.5 1008.0 0.0
01/05:30pm 13.9 11.3 3.1 48 5.0 NNE 6 13 3 7 1008.3 1007.8 0.0
01/05:00pm 13.9 11.4 3.9 51 4.7 NNE 6 7 3 4 1008.2 1007.7 0.0
01/04:30pm 14.1 11.7 4.1 51 4.7 NNE 6 7 3 4 1008.0 1007.5 0.0
01/04:00pm 14.6 12.6 4.3 50 4.9 NNE 4 7 2 4 1008.3 1007.8 0.0
01/03:30pm 13.7 11.0 2.9 48 5.0 N 6 11 3 6 1008.5 1008.0 0.0
01/03:00pm 13.1 11.1 4.5 56 4.1 NNE 4 6 2 3 1008.4 1007.9 0.0
01/02:30pm 14.1 12.4 3.8 50 4.9 NE 2 6 1 3 1008.7 1008.2 0.0
01/02:00pm 14.7 12.5 3.2 46 5.4 N 4 15 2 8 1008.9 1008.4 0.0
01/01:30pm 15.3 13.4 2.8 43 5.8 N 2 9 1 5 1009.3 1008.9 0.0
01/01:00pm 16.3 14.7 4.7 46 5.7 SSW 2 13 1 7 1010.0 1009.5 0.0
01/12:30pm 17.0 14.6 4.3 43 6.2 N 6 13 3 7 1010.5 1010.1 0.0
01/12:00pm 18.2 15.8 4.4 40 6.8 NW 6 15 3 8 1010.9 1010.5 0.0
01/11:30am 16.4 13.7 2.4 39 6.5 W 6 19 3 10 1010.7 1010.3 0.0
01/11:00am 16.7 13.5 3.1 40 6.5 WNW 9 24 5 13 1011.2 1010.7 0.0
01/10:30am 15.6 11.6 3.1 43 5.9 NNW 13 24 7 13 1011.6 1011.1 0.0
01/10:00am 14.8 9.7 3.0 45 5.5 NNW 19 37 10 20 1011.6 1011.1 0.0
01/09:30am 15.6 11.3 3.4 44 5.8 NNW 15 28 8 15 1012.0 1012.2 0.0
01/09:00am 15.0 11.8 3.2 45 5.5 NNW 9 19 5 10 1012.4 1012.6 0.0
01/08:30am 13.3 8.8 1.9 46 5.1 NNW 15 33 8 18 1012.6 1012.8 0.0
01/08:00am 13.1 8.5 1.8 46 5.1 NNW 15 35 8 19 1013.0 1013.1 0.0
01/07:30am 13.3 10.5 1.9 46 5.1 NW 6 20 3 11 1013.2 1013.3 0.0
01/07:00am 12.6 9.5 1.6 47 4.9 WNW 7 20 4 11 1013.2 1013.3 0.0
01/06:30am 12.6 10.0 1.0 45 5.1 W 4 15 2 8 1013.0 1013.1 0.0
01/06:00am 12.8 9.7 1.2 45 5.1 W 7 19 4 10 1012.7 1012.9 0.0
01/05:30am 13.5 10.4 1.2 43 5.5 NW 7 19 4 10 1012.9 1013.0 0.0
01/05:00am 12.8 9.9 1.2 45 5.1 NW 6 15 3 8 1013.0 1013.1 0.0
01/04:30am 12.3 9.8 1.3 47 4.8 W 4 7 2 4 1013.1 1013.2 0.0
01/04:00am 12.3 9.7 0.7 45 5.0 W 4 13 2 7 1013.2 1013.3 0.0
01/03:30am 12.7 9.0 -0.2 41 5.5 WNW 9 19 5 10 1013.2 1013.3 0.0
01/03:00am 12.5 8.5 0.6 44 5.2 NNW 11 20 6 11 1013.5 1013.7 0.0
01/02:30am 12.7 9.2 1.4 46 5.0 NNW 9 20 5 11 1013.7 1013.9 0.0
01/02:00am 12.6 10.1 3.6 54 4.2 NW 6 13 3 7 1014.3 1014.5 0.0
01/01:30am 11.8 10.0 3.6 57 3.8 WNW 2 7 1 4 1014.6 1014.8 0.0
01/01:00am 12.2 10.4 3.2 54 4.1 NNW 2 7 1 4 1014.8 1015.0 0.0
01/12:30am 12.6 10.0 3.3 53 4.3 WNW 6 11 3 6 1015.0 1015.2 0.0
01/12:00am 12.3 9.9 2.2 50 4.5 WNW 4 13 2 7 1015.2 1015.4 0.0
 
Date/Time
EST
Temp
°C
App
Temp
°C
Dew
Point
Rel
Hum
%
Delta-T
°C
Wind Press
QNH
hPa
Press
MSL
hPa
Rain
since 9 am
mm
Dir
 
Spd
km/h
Gust
km/h
Spd
kts
Gust
kts
31/11:30pm 11.6 10.0 4.3 61 3.4 NE 2 9 1 5 1015.5 1015.7 0.0
31/11:00pm 11.0 9.9 5.3 68 2.7 CALM 0 2 0 1 1015.7 1015.9 0.0
31/10:30pm 11.5 10.5 5.4 66 2.9 CALM 0 4 0 2 1015.9 1016.2 0.0
31/10:00pm 11.7 10.2 5.1 64 3.1 ENE 2 4 1 2 1016.4 1016.6 0.0
31/09:30pm 11.3 10.3 5.8 69 2.7 CALM 0 0 0 0 1016.6 1016.8 0.0
31/09:00pm 11.4 10.6 6.3 71 2.5 CALM 0 0 0 0 1016.8 1017.0 0.0
31/08:30pm 10.9 10.1 6.5 74 2.1 CALM 0 0 0 0 1017.0 1017.2 0.0
31/08:00pm 11.0 10.2 6.7 75 2.1 CALM 0 0 0 0 1017.1 1017.3 0.0
31/07:30pm 11.2 10.4 6.5 73 2.3 CALM 0 0 0 0 1016.9 1017.1 0.0
31/07:00pm 11.5 10.7 6.4 71 2.5 CALM 0 0 0 0 1017.0 1017.2 0.0
31/06:30pm 12.2 11.4 6.7 69 2.7 CALM 0 0 0 0 1017.0 1017.2 0.0
31/06:00pm 12.4 11.6 6.5 67 2.9 CALM 0 0 0 0 1017.0 1017.2 0.0
31/05:30pm 13.1 12.2 6.0 62 3.5 CALM 0 0 0 0 1016.8 1017.0 0.0
31/05:00pm 14.2 13.5 6.8 61 3.7 CALM 0 0 0 0 1016.7 1016.9 0.0
31/04:30pm 15.5 14.9 7.3 58 4.2 CALM 0 0 0 0 1016.6 1016.8 0.0
31/04:00pm 15.9 15.3 7.4 57 4.4 CALM 0 0 0 0 1016.7 1016.9 0.0
31/03:30pm 16.2 15.4 6.6 53 4.9 CALM 0 2 0 1 1016.8 1017.0 0.0
31/03:00pm 16.4 15.5 6.0 50 5.2 CALM 0 0 0 0 1017.0 1017.2 0.0
31/02:30pm 16.6 16.0 7.3 54 4.8 CALM 0 0 0 0 1017.1 1017.3 0.0
31/02:00pm 16.1 15.3 6.5 53 4.9 CALM 0 0 0 0 1017.5 1017.8 0.0
31/01:30pm 16.4 15.4 5.4 48 5.5 CALM 0 0 0 0 1017.7 1018.0 0.0
31/01:00pm 16.3 15.0 5.9 50 5.2 ESE 2 6 1 3 1018.0 1018.2 0.0
31/12:30pm 16.0 15.2 6.4 53 4.8 CALM 0 0 0 0 1018.4 1018.6 0.0
31/12:00pm 15.4 14.4 5.6 52 4.8 CALM 0 2 0 1 1018.9 1019.2 0.0
31/11:30am 15.7 14.6 5.0 49 5.2 CALM 0 2 0 1 1019.3 1019.6 0.0
31/11:00am 14.9 13.5 3.7 47 5.3 CALM 0 0 0 0 1019.7 1019.9 0.0
31/10:30am 14.9 13.5 3.4 46 5.4 CALM 0 6 0 3 1019.9 1020.2 0.0
31/10:00am 15.4 13.5 2.6 42 5.9 NE 2 4 1 2 1020.1 1020.4 0.0
31/09:30am 14.9 13.8 4.9 51 4.9 CALM 0 2 0 1 1020.3 1020.6 0.0
31/09:00am 14.2 13.4 6.3 59 3.9 CALM 0 0 0 0 1020.4 1020.7 0.0
31/08:30am 12.5 11.1 3.5 54 4.2 CALM 0 0 0 0 1020.5 1020.8 0.0
31/08:00am 11.8 10.8 5.4 65 3.1 CALM 0 0 0 0 1020.5 1020.8 0.0
31/07:30am 10.8 8.9 0.8 50 4.3 CALM 0 0 0 0 1020.4 1020.7 0.0
31/07:00am 9.6 7.7 0.8 54 3.7 CALM 0 0 0 0 1020.2 1020.5 0.0
31/06:30am 9.1 7.2 0.3 54 3.7 CALM 0 0 0 0 1020.1 1020.4 0.0
31/06:00am 8.9 7.0 0.6 56 3.5 CALM 0 0 0 0 1020.0 1020.3 0.0
31/05:30am 9.4 7.4 -0.2 51 4.0 CALM 0 4 0 2 1020.0 1020.3 0.0
31/05:00am 9.1 7.2 0.8 56 3.5 CALM 0 0 0 0 1020.0 1020.3 0.0
31/04:30am 8.7 6.9 0.9 58 3.3 CALM 0 0 0 0 1019.9 1020.2 0.0
31/04:00am 9.0 7.2 1.2 58 3.3 CALM 0 0 0 0 1020.0 1020.3 0.0
31/03:30am 9.3 7.7 2.4 62 3.0 CALM 0 0 0 0 1020.2 1020.5 0.0
31/03:00am 9.2 7.5 1.9 60 3.2 CALM 0 0 0 0 1020.5 1020.8 0.0
31/02:30am 8.8 7.2 2.6 65 2.7 CALM 0 0 0 0 1020.9 1021.2 0.0
31/02:00am 8.3 6.8 3.2 70 2.3 CALM 0 0 0 0 1021.2 1021.4 0.0
31/01:30am 8.3 6.8 3.2 70 2.3 CALM 0 4 0 2 1021.5 1021.8 0.0
31/01:00am 8.6 7.1 3.2 69 2.4 CALM 0 0 0 0 1021.7 1022.0 0.0
31/12:30am 8.9 7.4 3.1 67 2.6 CALM 0 0 0 0 1021.9 1022.2 0.0
31/12:00am 8.8 7.4 3.6 70 2.3 CALM 0 4 0 2 1022.2 1022.5 0.0

Other Formats:

Comma delimited format used in spreadsheet applications
http://www.bom.gov.au/fwo/IDV60801/IDV60801.94914.axf

JavaScript Object Notation format (JSON) in row-major order
http://www.bom.gov.au/fwo/IDV60801/IDV60801.94914.json